KASL/ASL METAR and TAF weather

Enter ICAO airport designator
Station Type Date Time Source
KASL METAR 2022/07/03 13:35 UTC NOAA

KASL 031335Z AUTO 22007KT 10SM OVC013 26/24 A3006 RMK AO1 T02570235


Station Type Date Time Source
KASL Decoded METAR 2022/07/03 13:35 UTC NOAA

Station name not available
Jul 03, 2022 - 09:35 AM EDT / 2022.07.03 1335 UTC
Wind: from the SW (220 degrees) at 8 MPH (7 KT):0
Visibility: 10 mile(s):0
Sky conditions: overcast
Temperature: 78.3 F (25.7 C)
Dew Point: 74.3 F (23.5 C)
Relative Humidity: 87%
Pressure (altimeter): 30.06 in. Hg (1017 hPa)
ob: KASL 031335Z AUTO 22007KT 10SM OVC013 26/24 A3006 RMK AO1 T02570235
cycle: 13

Station Type Date Time Source
KASL TAF UTC NOAA

Error!

Example: see airport list